sensor_id;sensor_type;location;lat;lon;timestamp;P1;durP1;ratioP1;P2;durP2;ratioP2
48777;SDS011;34578;0.000;0.000;2023-04-06T00:03:27;2.70;;;1.55;;
48777;SDS011;34578;0.000;0.000;2023-04-06T00:08:27;1.87;;;1.43;;
48777;SDS011;34578;0.000;0.000;2023-04-06T00:13:28;1.42;;;1.27;;
48777;SDS011;34578;0.000;0.000;2023-04-06T00:18:29;2.03;;;1.30;;
48777;SDS011;34578;0.000;0.000;2023-04-06T00:23:29;1.90;;;1.07;;
48777;SDS011;34578;0.000;0.000;2023-04-06T00:28:30;1.85;;;1.20;;
48777;SDS011;34578;0.000;0.000;2023-04-06T00:33:31;2.00;;;1.17;;
48777;SDS011;34578;0.000;0.000;2023-04-06T00:38:32;1.92;;;1.38;;
48777;SDS011;34578;0.000;0.000;2023-04-06T00:43:32;1.88;;;1.40;;
48777;SDS011;34578;0.000;0.000;2023-04-06T00:48:33;3.08;;;1.30;;
48777;SDS011;34578;0.000;0.000;2023-04-06T00:53:33;3.42;;;1.20;;
48777;SDS011;34578;0.000;0.000;2023-04-06T00:58:35;2.67;;;1.30;;
48777;SDS011;34578;0.000;0.000;2023-04-06T01:03:40;1.65;;;1.33;;
48777;SDS011;34578;0.000;0.000;2023-04-06T01:08:43;2.20;;;1.45;;
48777;SDS011;34578;0.000;0.000;2023-04-06T01:13:55;3.25;;;1.50;;
48777;SDS011;34578;0.000;0.000;2023-04-06T01:19:19;1.98;;;1.27;;
48777;SDS011;34578;0.000;0.000;2023-04-06T01:24:25;4.05;;;1.10;;
48777;SDS011;34578;0.000;0.000;2023-04-06T01:29:34;1.83;;;1.27;;
48777;SDS011;34578;0.000;0.000;2023-04-06T01:34:36;1.52;;;1.20;;
48777;SDS011;34578;0.000;0.000;2023-04-06T01:39:39;2.10;;;1.27;;
48777;SDS011;34578;0.000;0.000;2023-04-06T01:44:41;2.53;;;1.13;;
48777;SDS011;34578;0.000;0.000;2023-04-06T01:49:46;2.13;;;1.48;;
48777;SDS011;34578;0.000;0.000;2023-04-06T01:54:47;1.85;;;1.40;;
48777;SDS011;34578;0.000;0.000;2023-04-06T01:59:51;1.98;;;1.25;;
48777;SDS011;34578;0.000;0.000;2023-04-06T02:05:19;1.52;;;0.93;;
48777;SDS011;34578;0.000;0.000;2023-04-06T02:10:20;1.27;;;1.17;;
48777;SDS011;34578;0.000;0.000;2023-04-06T02:15:21;1.33;;;1.00;;
48777;SDS011;34578;0.000;0.000;2023-04-06T02:20:21;4.55;;;1.60;;
48777;SDS011;34578;0.000;0.000;2023-04-06T02:25:22;1.67;;;1.10;;
48777;SDS011;34578;0.000;0.000;2023-04-06T02:30:22;2.00;;;1.30;;
48777;SDS011;34578;0.000;0.000;2023-04-06T02:35:25;1.83;;;1.33;;
48777;SDS011;34578;0.000;0.000;2023-04-06T02:40:28;2.30;;;1.25;;
48777;SDS011;34578;0.000;0.000;2023-04-06T02:45:30;3.63;;;1.35;;
48777;SDS011;34578;0.000;0.000;2023-04-06T02:50:32;1.75;;;0.98;;
48777;SDS011;34578;0.000;0.000;2023-04-06T02:55:37;3.33;;;1.67;;
48777;SDS011;34578;0.000;0.000;2023-04-06T03:00:37;1.85;;;1.10;;
48777;SDS011;34578;0.000;0.000;2023-04-06T03:05:38;1.73;;;1.25;;
48777;SDS011;34578;0.000;0.000;2023-04-06T03:10:39;1.45;;;1.25;;
48777;SDS011;34578;0.000;0.000;2023-04-06T03:15:40;1.65;;;1.25;;
48777;SDS011;34578;0.000;0.000;2023-04-06T03:20:47;2.60;;;1.05;;
48777;SDS011;34578;0.000;0.000;2023-04-06T03:25:50;4.13;;;1.20;;
48777;SDS011;34578;0.000;0.000;2023-04-06T03:30:53;1.70;;;1.00;;
48777;SDS011;34578;0.000;0.000;2023-04-06T03:36:09;1.50;;;1.07;;
48777;SDS011;34578;0.000;0.000;2023-04-06T03:41:14;1.23;;;1.00;;
48777;SDS011;34578;0.000;0.000;2023-04-06T03:46:19;1.60;;;1.10;;
48777;SDS011;34578;0.000;0.000;2023-04-06T03:51:23;1.52;;;1.02;;
48777;SDS011;34578;0.000;0.000;2023-04-06T03:56:24;1.50;;;1.00;;
48777;SDS011;34578;0.000;0.000;2023-04-06T04:01:24;1.83;;;1.05;;
48777;SDS011;34578;0.000;0.000;2023-04-06T04:06:25;1.50;;;1.20;;
48777;SDS011;34578;0.000;0.000;2023-04-06T04:11:29;1.30;;;1.10;;
48777;SDS011;34578;0.000;0.000;2023-04-06T04:16:31;1.83;;;1.25;;
48777;SDS011;34578;0.000;0.000;2023-04-06T04:21:32;1.15;;;0.98;;
48777;SDS011;34578;0.000;0.000;2023-04-06T04:26:37;2.80;;;1.25;;
48777;SDS011;34578;0.000;0.000;2023-04-06T04:31:40;2.00;;;1.17;;
48777;SDS011;34578;0.000;0.000;2023-04-06T04:36:48;2.35;;;1.30;;
48777;SDS011;34578;0.000;0.000;2023-04-06T04:41:56;2.15;;;1.00;;
48777;SDS011;34578;0.000;0.000;2023-04-06T04:46:57;1.90;;;1.10;;
48777;SDS011;34578;0.000;0.000;2023-04-06T04:52:06;1.20;;;1.10;;
48777;SDS011;34578;0.000;0.000;2023-04-06T04:57:30;1.45;;;1.00;;
48777;SDS011;34578;0.000;0.000;2023-04-06T05:02:31;4.38;;;3.35;;
48777;SDS011;34578;0.000;0.000;2023-04-06T05:07:48;3.72;;;1.45;;
48777;SDS011;34578;0.000;0.000;2023-04-06T05:12:59;1.38;;;1.10;;
48777;SDS011;34578;0.000;0.000;2023-04-06T05:18:01;3.00;;;1.60;;
48777;SDS011;34578;0.000;0.000;2023-04-06T05:23:06;8.50;;;1.77;;
48777;SDS011;34578;0.000;0.000;2023-04-06T05:28:08;2.08;;;1.63;;
48777;SDS011;34578;0.000;0.000;2023-04-06T05:33:11;4.88;;;1.40;;
48777;SDS011;34578;0.000;0.000;2023-04-06T05:38:26;4.97;;;1.75;;
48777;SDS011;34578;0.000;0.000;2023-04-06T05:43:30;4.22;;;2.03;;
48777;SDS011;34578;0.000;0.000;2023-04-06T05:48:32;3.28;;;1.42;;
48777;SDS011;34578;0.000;0.000;2023-04-06T05:53:33;3.22;;;1.40;;
48777;SDS011;34578;0.000;0.000;2023-04-06T05:58:34;5.30;;;1.40;;
48777;SDS011;34578;0.000;0.000;2023-04-06T06:03:35;2.90;;;1.60;;
48777;SDS011;34578;0.000;0.000;2023-04-06T06:08:36;21.20;;;2.80;;
48777;SDS011;34578;0.000;0.000;2023-04-06T06:13:42;6.78;;;1.98;;
48777;SDS011;34578;0.000;0.000;2023-04-06T06:18:43;4.90;;;1.98;;
48777;SDS011;34578;0.000;0.000;2023-04-06T06:23:44;9.23;;;1.80;;
48777;SDS011;34578;0.000;0.000;2023-04-06T06:28:48;3.95;;;1.92;;
48777;SDS011;34578;0.000;0.000;2023-04-06T06:33:49;7.80;;;2.65;;
48777;SDS011;34578;0.000;0.000;2023-04-06T06:38:52;7.50;;;2.50;;
48777;SDS011;34578;0.000;0.000;2023-04-06T06:43:54;9.32;;;2.83;;
48777;SDS011;34578;0.000;0.000;2023-04-06T06:48:55;3.58;;;1.58;;
48777;SDS011;34578;0.000;0.000;2023-04-06T06:53:55;3.22;;;1.63;;
48777;SDS011;34578;0.000;0.000;2023-04-06T06:58:58;3.58;;;1.45;;
48777;SDS011;34578;0.000;0.000;2023-04-06T07:03:58;4.60;;;1.70;;
48777;SDS011;34578;0.000;0.000;2023-04-06T07:08:59;4.35;;;2.00;;
48777;SDS011;34578;0.000;0.000;2023-04-06T07:13:59;3.35;;;2.10;;
48777;SDS011;34578;0.000;0.000;2023-04-06T07:19:00;5.70;;;1.67;;
48777;SDS011;34578;0.000;0.000;2023-04-06T07:24:01;3.83;;;1.88;;
48777;SDS011;34578;0.000;0.000;2023-04-06T07:29:02;6.78;;;1.52;;
48777;SDS011;34578;0.000;0.000;2023-04-06T07:34:02;6.28;;;1.83;;
48777;SDS011;34578;0.000;0.000;2023-04-06T07:39:03;3.60;;;1.88;;
48777;SDS011;34578;0.000;0.000;2023-04-06T07:44:05;8.88;;;2.10;;
48777;SDS011;34578;0.000;0.000;2023-04-06T07:49:05;6.13;;;1.60;;
48777;SDS011;34578;0.000;0.000;2023-04-06T07:54:08;12.70;;;1.83;;
48777;SDS011;34578;0.000;0.000;2023-04-06T07:59:08;7.47;;;1.50;;
48777;SDS011;34578;0.000;0.000;2023-04-06T08:04:08;3.70;;;1.40;;
48777;SDS011;34578;0.000;0.000;2023-04-06T08:09:09;2.88;;;1.45;;
48777;SDS011;34578;0.000;0.000;2023-04-06T08:14:09;2.47;;;1.55;;
48777;SDS011;34578;0.000;0.000;2023-04-06T08:19:10;4.47;;;1.50;;
48777;SDS011;34578;0.000;0.000;2023-04-06T08:24:11;6.30;;;1.80;;
48777;SDS011;34578;0.000;0.000;2023-04-06T08:29:12;5.78;;;1.95;;
48777;SDS011;34578;0.000;0.000;2023-04-06T08:34:13;4.60;;;1.55;;
48777;SDS011;34578;0.000;0.000;2023-04-06T08:39:13;5.17;;;1.73;;
48777;SDS011;34578;0.000;0.000;2023-04-06T08:44:13;3.38;;;1.80;;
48777;SDS011;34578;0.000;0.000;2023-04-06T08:49:14;1.65;;;1.40;;
48777;SDS011;34578;0.000;0.000;2023-04-06T08:54:16;4.28;;;1.48;;
48777;SDS011;34578;0.000;0.000;2023-04-06T08:59:16;3.70;;;1.70;;
48777;SDS011;34578;0.000;0.000;2023-04-06T09:04:17;5.22;;;2.50;;
48777;SDS011;34578;0.000;0.000;2023-04-06T09:09:18;2.67;;;2.03;;
48777;SDS011;34578;0.000;0.000;2023-04-06T09:14:37;2.63;;;1.67;;
48777;SDS011;34578;0.000;0.000;2023-04-06T09:19:45;4.80;;;2.40;;
48777;SDS011;34578;0.000;0.000;2023-04-06T09:24:49;4.07;;;2.13;;
48777;SDS011;34578;0.000;0.000;2023-04-06T09:29:51;5.68;;;2.15;;
48777;SDS011;34578;0.000;0.000;2023-04-06T09:35:08;3.42;;;2.05;;
48777;SDS011;34578;0.000;0.000;2023-04-06T09:40:09;3.65;;;2.00;;
48777;SDS011;34578;0.000;0.000;2023-04-06T09:45:10;6.97;;;1.90;;
48777;SDS011;34578;0.000;0.000;2023-04-06T09:50:11;3.60;;;1.90;;
48777;SDS011;34578;0.000;0.000;2023-04-06T09:55:13;4.32;;;2.22;;
48777;SDS011;34578;0.000;0.000;2023-04-06T10:00:21;6.72;;;1.65;;
48777;SDS011;34578;0.000;0.000;2023-04-06T10:10:42;3.03;;;1.88;;
48777;SDS011;34578;0.000;0.000;2023-04-06T10:15:43;2.83;;;1.55;;
48777;SDS011;34578;0.000;0.000;2023-04-06T10:21:01;4.10;;;1.23;;
48777;SDS011;34578;0.000;0.000;2023-04-06T10:26:11;3.67;;;1.63;;
48777;SDS011;34578;0.000;0.000;2023-04-06T10:31:14;3.22;;;1.77;;
48777;SDS011;34578;0.000;0.000;2023-04-06T10:36:15;3.75;;;1.85;;
48777;SDS011;34578;0.000;0.000;2023-04-06T10:41:22;5.07;;;1.88;;
48777;SDS011;34578;0.000;0.000;2023-04-06T10:46:26;1.50;;;1.08;;
48777;SDS011;34578;0.000;0.000;2023-04-06T10:51:28;4.97;;;1.77;;
48777;SDS011;34578;0.000;0.000;2023-04-06T10:56:28;1.73;;;1.30;;
48777;SDS011;34578;0.000;0.000;2023-04-06T11:01:30;3.90;;;1.52;;
48777;SDS011;34578;0.000;0.000;2023-04-06T11:06:31;3.60;;;1.60;;
48777;SDS011;34578;0.000;0.000;2023-04-06T11:11:32;4.82;;;1.48;;
48777;SDS011;34578;0.000;0.000;2023-04-06T11:16:32;4.55;;;1.45;;
48777;SDS011;34578;0.000;0.000;2023-04-06T11:26:46;4.03;;;1.27;;
48777;SDS011;34578;0.000;0.000;2023-04-06T11:31:50;4.70;;;1.65;;
48777;SDS011;34578;0.000;0.000;2023-04-06T11:36:55;10.02;;;1.75;;
48777;SDS011;34578;0.000;0.000;2023-04-06T11:42:06;9.38;;;2.13;;
48777;SDS011;34578;0.000;0.000;2023-04-06T11:47:07;7.07;;;1.65;;
48777;SDS011;34578;0.000;0.000;2023-04-06T11:52:19;7.32;;;1.75;;
48777;SDS011;34578;0.000;0.000;2023-04-06T11:57:23;4.68;;;1.70;;
48777;SDS011;34578;0.000;0.000;2023-04-06T12:02:28;7.30;;;2.45;;
48777;SDS011;34578;0.000;0.000;2023-04-06T12:07:28;4.03;;;1.40;;
48777;SDS011;34578;0.000;0.000;2023-04-06T12:12:30;5.68;;;1.55;;
48777;SDS011;34578;0.000;0.000;2023-04-06T12:17:31;6.78;;;1.70;;
48777;SDS011;34578;0.000;0.000;2023-04-06T12:22:31;8.20;;;1.63;;
48777;SDS011;34578;0.000;0.000;2023-04-06T12:27:32;4.20;;;1.30;;
48777;SDS011;34578;0.000;0.000;2023-04-06T12:32:32;1.90;;;1.30;;
48777;SDS011;34578;0.000;0.000;2023-04-06T12:37:33;9.03;;;1.97;;
48777;SDS011;34578;0.000;0.000;2023-04-06T12:42:33;4.07;;;1.10;;
48777;SDS011;34578;0.000;0.000;2023-04-06T12:47:34;4.10;;;1.63;;
48777;SDS011;34578;0.000;0.000;2023-04-06T12:52:36;1.60;;;1.10;;
48777;SDS011;34578;0.000;0.000;2023-04-06T12:57:38;3.67;;;1.10;;
48777;SDS011;34578;0.000;0.000;2023-04-06T13:02:40;4.32;;;1.52;;
48777;SDS011;34578;0.000;0.000;2023-04-06T13:07:46;2.20;;;1.00;;
48777;SDS011;34578;0.000;0.000;2023-04-06T13:12:47;1.13;;;1.03;;
48777;SDS011;34578;0.000;0.000;2023-04-06T13:17:47;2.73;;;1.07;;
48777;SDS011;34578;0.000;0.000;2023-04-06T13:22:48;1.98;;;0.93;;
48777;SDS011;34578;0.000;0.000;2023-04-06T13:27:48;1.50;;;1.07;;
48777;SDS011;34578;0.000;0.000;2023-04-06T13:32:49;2.28;;;1.10;;
48777;SDS011;34578;0.000;0.000;2023-04-06T13:37:50;2.55;;;1.15;;
48777;SDS011;34578;0.000;0.000;2023-04-06T13:42:52;2.10;;;1.00;;
48777;SDS011;34578;0.000;0.000;2023-04-06T13:47:52;3.47;;;1.20;;
48777;SDS011;34578;0.000;0.000;2023-04-06T13:52:53;2.03;;;1.10;;
48777;SDS011;34578;0.000;0.000;2023-04-06T13:57:53;1.23;;;0.93;;
48777;SDS011;34578;0.000;0.000;2023-04-06T14:02:55;2.65;;;1.13;;
48777;SDS011;34578;0.000;0.000;2023-04-06T14:07:55;3.47;;;1.20;;
48777;SDS011;34578;0.000;0.000;2023-04-06T14:12:55;3.67;;;1.30;;
48777;SDS011;34578;0.000;0.000;2023-04-06T14:17:58;2.25;;;1.15;;
48777;SDS011;34578;0.000;0.000;2023-04-06T14:23:01;1.60;;;1.20;;
48777;SDS011;34578;0.000;0.000;2023-04-06T14:28:02;0.93;;;0.80;;
48777;SDS011;34578;0.000;0.000;2023-04-06T14:33:02;4.07;;;1.30;;
48777;SDS011;34578;0.000;0.000;2023-04-06T14:38:03;1.42;;;1.00;;
48777;SDS011;34578;0.000;0.000;2023-04-06T14:43:03;1.27;;;1.00;;
48777;SDS011;34578;0.000;0.000;2023-04-06T14:48:05;2.17;;;1.00;;
48777;SDS011;34578;0.000;0.000;2023-04-06T14:53:06;4.25;;;1.58;;
48777;SDS011;34578;0.000;0.000;2023-04-06T14:58:07;2.70;;;1.05;;
48777;SDS011;34578;0.000;0.000;2023-04-06T15:03:07;1.52;;;1.10;;
48777;SDS011;34578;0.000;0.000;2023-04-06T15:08:08;2.05;;;1.23;;
48777;SDS011;34578;0.000;0.000;2023-04-06T15:13:13;1.27;;;1.05;;
48777;SDS011;34578;0.000;0.000;2023-04-06T15:18:14;1.30;;;1.10;;
48777;SDS011;34578;0.000;0.000;2023-04-06T15:23:15;1.45;;;0.98;;
48777;SDS011;34578;0.000;0.000;2023-04-06T15:28:18;1.45;;;0.90;;
48777;SDS011;34578;0.000;0.000;2023-04-06T15:33:19;1.65;;;1.05;;
48777;SDS011;34578;0.000;0.000;2023-04-06T15:38:20;2.55;;;1.30;;
48777;SDS011;34578;0.000;0.000;2023-04-06T15:43:20;3.55;;;1.55;;
48777;SDS011;34578;0.000;0.000;2023-04-06T15:48:21;1.67;;;1.10;;
48777;SDS011;34578;0.000;0.000;2023-04-06T15:53:23;6.05;;;1.58;;
48777;SDS011;34578;0.000;0.000;2023-04-06T15:58:23;3.85;;;1.00;;
48777;SDS011;34578;0.000;0.000;2023-04-06T16:03:24;9.55;;;1.55;;
48777;SDS011;34578;0.000;0.000;2023-04-06T16:08:27;2.33;;;1.42;;
48777;SDS011;34578;0.000;0.000;2023-04-06T16:13:27;1.87;;;1.07;;
48777;SDS011;34578;0.000;0.000;2023-04-06T16:18:28;3.67;;;1.35;;
48777;SDS011;34578;0.000;0.000;2023-04-06T16:23:30;3.83;;;1.00;;
48777;SDS011;34578;0.000;0.000;2023-04-06T16:28:30;1.90;;;1.07;;
48777;SDS011;34578;0.000;0.000;2023-04-06T16:33:32;3.97;;;1.15;;
48777;SDS011;34578;0.000;0.000;2023-04-06T16:38:32;3.13;;;1.10;;
48777;SDS011;34578;0.000;0.000;2023-04-06T16:43:34;5.55;;;1.48;;
48777;SDS011;34578;0.000;0.000;2023-04-06T16:48:35;3.10;;;0.95;;
48777;SDS011;34578;0.000;0.000;2023-04-06T16:53:36;2.22;;;1.42;;
48777;SDS011;34578;0.000;0.000;2023-04-06T16:58:37;3.20;;;1.20;;
48777;SDS011;34578;0.000;0.000;2023-04-06T17:03:38;4.82;;;1.52;;
48777;SDS011;34578;0.000;0.000;2023-04-06T17:08:38;3.43;;;1.07;;
48777;SDS011;34578;0.000;0.000;2023-04-06T17:13:40;4.55;;;0.80;;
48777;SDS011;34578;0.000;0.000;2023-04-06T17:18:41;1.38;;;0.98;;
48777;SDS011;34578;0.000;0.000;2023-04-06T17:23:42;3.53;;;1.10;;
48777;SDS011;34578;0.000;0.000;2023-04-06T17:28:43;1.50;;;1.20;;
48777;SDS011;34578;0.000;0.000;2023-04-06T17:33:44;1.52;;;0.98;;
48777;SDS011;34578;0.000;0.000;2023-04-06T17:38:44;1.07;;;0.80;;
48777;SDS011;34578;0.000;0.000;2023-04-06T17:43:45;1.90;;;1.08;;
48777;SDS011;34578;0.000;0.000;2023-04-06T17:48:47;1.48;;;0.93;;
48777;SDS011;34578;0.000;0.000;2023-04-06T17:53:47;1.65;;;1.15;;
48777;SDS011;34578;0.000;0.000;2023-04-06T17:58:48;1.33;;;0.98;;
48777;SDS011;34578;0.000;0.000;2023-04-06T18:03:48;1.65;;;1.20;;
48777;SDS011;34578;0.000;0.000;2023-04-06T18:08:49;2.53;;;0.90;;
48777;SDS011;34578;0.000;0.000;2023-04-06T18:13:50;1.88;;;0.90;;
48777;SDS011;34578;0.000;0.000;2023-04-06T18:18:50;2.25;;;1.00;;
48777;SDS011;34578;0.000;0.000;2023-04-06T18:23:51;1.88;;;1.20;;
48777;SDS011;34578;0.000;0.000;2023-04-06T18:28:52;1.65;;;1.02;;
48777;SDS011;34578;0.000;0.000;2023-04-06T18:33:52;2.27;;;1.20;;
48777;SDS011;34578;0.000;0.000;2023-04-06T18:38:52;0.95;;;0.73;;
48777;SDS011;34578;0.000;0.000;2023-04-06T18:43:55;1.50;;;1.23;;
48777;SDS011;34578;0.000;0.000;2023-04-06T18:48:56;1.10;;;0.90;;
48777;SDS011;34578;0.000;0.000;2023-04-06T18:53:56;1.33;;;0.95;;
48777;SDS011;34578;0.000;0.000;2023-04-06T18:58:57;1.10;;;0.85;;
48777;SDS011;34578;0.000;0.000;2023-04-06T19:03:57;1.20;;;0.93;;
48777;SDS011;34578;0.000;0.000;2023-04-06T19:08:58;1.85;;;0.98;;
48777;SDS011;34578;0.000;0.000;2023-04-06T19:13:59;1.73;;;1.20;;
48777;SDS011;34578;0.000;0.000;2023-04-06T19:18:59;1.00;;;0.80;;
48777;SDS011;34578;0.000;0.000;2023-04-06T19:23:59;2.45;;;1.23;;
48777;SDS011;34578;0.000;0.000;2023-04-06T19:29:00;1.30;;;0.80;;
48777;SDS011;34578;0.000;0.000;2023-04-06T19:34:00;1.30;;;1.02;;
48777;SDS011;34578;0.000;0.000;2023-04-06T19:39:01;1.27;;;1.10;;
48777;SDS011;34578;0.000;0.000;2023-04-06T19:44:01;1.00;;;0.88;;
48777;SDS011;34578;0.000;0.000;2023-04-06T19:49:02;1.67;;;1.08;;
48777;SDS011;34578;0.000;0.000;2023-04-06T19:54:03;1.75;;;1.05;;
48777;SDS011;34578;0.000;0.000;2023-04-06T19:59:04;1.20;;;0.90;;
48777;SDS011;34578;0.000;0.000;2023-04-06T20:04:06;1.02;;;0.93;;
48777;SDS011;34578;0.000;0.000;2023-04-06T20:09:06;3.42;;;1.20;;
48777;SDS011;34578;0.000;0.000;2023-04-06T20:14:07;2.08;;;1.23;;
48777;SDS011;34578;0.000;0.000;2023-04-06T20:19:08;2.50;;;1.15;;
48777;SDS011;34578;0.000;0.000;2023-04-06T20:24:08;1.40;;;1.00;;
48777;SDS011;34578;0.000;0.000;2023-04-06T20:29:10;1.10;;;0.93;;
48777;SDS011;34578;0.000;0.000;2023-04-06T20:34:10;1.03;;;0.80;;
48777;SDS011;34578;0.000;0.000;2023-04-06T20:39:11;2.57;;;0.90;;
48777;SDS011;34578;0.000;0.000;2023-04-06T20:44:12;1.88;;;1.25;;
48777;SDS011;34578;0.000;0.000;2023-04-06T20:49:12;1.97;;;1.20;;
48777;SDS011;34578;0.000;0.000;2023-04-06T20:54:13;1.55;;;1.40;;
48777;SDS011;34578;0.000;0.000;2023-04-06T20:59:14;1.48;;;1.23;;
48777;SDS011;34578;0.000;0.000;2023-04-06T21:04:14;2.10;;;1.70;;
48777;SDS011;34578;0.000;0.000;2023-04-06T21:09:15;2.60;;;1.55;;
48777;SDS011;34578;0.000;0.000;2023-04-06T21:14:15;1.92;;;1.63;;
48777;SDS011;34578;0.000;0.000;2023-04-06T21:19:16;3.40;;;1.90;;
48777;SDS011;34578;0.000;0.000;2023-04-06T21:24:17;2.55;;;1.70;;
48777;SDS011;34578;0.000;0.000;2023-04-06T21:29:17;1.83;;;1.58;;
48777;SDS011;34578;0.000;0.000;2023-04-06T21:34:18;1.90;;;1.47;;
48777;SDS011;34578;0.000;0.000;2023-04-06T21:39:18;1.90;;;1.43;;
48777;SDS011;34578;0.000;0.000;2023-04-06T21:44:18;3.25;;;1.70;;
48777;SDS011;34578;0.000;0.000;2023-04-06T21:49:19;1.17;;;0.70;;
48777;SDS011;34578;0.000;0.000;2023-04-06T21:54:19;1.20;;;0.93;;
48777;SDS011;34578;0.000;0.000;2023-04-06T21:59:20;0.90;;;0.80;;
48777;SDS011;34578;0.000;0.000;2023-04-06T22:04:20;1.08;;;0.80;;
48777;SDS011;34578;0.000;0.000;2023-04-06T22:09:22;1.00;;;0.90;;
48777;SDS011;34578;0.000;0.000;2023-04-06T22:14:23;1.02;;;0.90;;
48777;SDS011;34578;0.000;0.000;2023-04-06T22:19:24;2.00;;;1.35;;
48777;SDS011;34578;0.000;0.000;2023-04-06T22:24:25;1.05;;;0.95;;
48777;SDS011;34578;0.000;0.000;2023-04-06T22:29:25;1.80;;;0.85;;
48777;SDS011;34578;0.000;0.000;2023-04-06T22:34:26;1.75;;;0.88;;
48777;SDS011;34578;0.000;0.000;2023-04-06T22:39:26;1.33;;;0.80;;
48777;SDS011;34578;0.000;0.000;2023-04-06T22:44:27;1.07;;;0.83;;
48777;SDS011;34578;0.000;0.000;2023-04-06T22:49:27;1.20;;;0.80;;
48777;SDS011;34578;0.000;0.000;2023-04-06T22:54:27;1.07;;;0.80;;
48777;SDS011;34578;0.000;0.000;2023-04-06T22:59:28;1.33;;;1.13;;
48777;SDS011;34578;0.000;0.000;2023-04-06T23:04:28;2.00;;;1.10;;
48777;SDS011;34578;0.000;0.000;2023-04-06T23:09:29;0.85;;;0.77;;
48777;SDS011;34578;0.000;0.000;2023-04-06T23:14:30;1.17;;;0.70;;
48777;SDS011;34578;0.000;0.000;2023-04-06T23:19:31;1.00;;;0.90;;
48777;SDS011;34578;0.000;0.000;2023-04-06T23:24:31;0.98;;;0.80;;
48777;SDS011;34578;0.000;0.000;2023-04-06T23:29:32;2.15;;;0.80;;
48777;SDS011;34578;0.000;0.000;2023-04-06T23:34:32;0.93;;;0.80;;
48777;SDS011;34578;0.000;0.000;2023-04-06T23:39:33;0.90;;;0.65;;
48777;SDS011;34578;0.000;0.000;2023-04-06T23:44:34;1.30;;;0.80;;
48777;SDS011;34578;0.000;0.000;2023-04-06T23:49:34;1.25;;;0.88;;
48777;SDS011;34578;0.000;0.000;2023-04-06T23:54:35;0.83;;;0.60;;
48777;SDS011;34578;0.000;0.000;2023-04-06T23:59:36;0.80;;;0.65;;
